Terminal Aerodrome Forecast
Issued by NWS Pittsburgh, PA

Current Version | Previous Version | Graphics & Text | Print | Product List | Glossary On
Versions: 1 2 3 4 5 6 7 8 9 10 11 12 13 14 15 16 17 18 19 20 21 22 23 24 25 26 27 28 29 30
750
FTUS41 KPBZ 290520
TAFPIT
TAF
KPIT 290520Z 2906/3012 34008KT P6SM OVC011
      TEMPO 2906/2909 BKN008
     FM291200 35005KT P6SM BKN022
     FM291500 36006KT P6SM SCT035
     FM300900 07006KT P6SM BKN120=

USA.gov is the U.S. government's official web portal to all federal, state and local government web resources and services.